Greifenstein — OED3032 — position and weather

sailwx.info

Track history (hours):
 
Tides and Currents Weather Stations Pressure Air Temp Water Temp Dewpoint Dewpoint Depression Visibility Wind Speed Wind Dir Waves Ship Positions

Greifenstein

Last reported at 2018-Feb-20 17:59 UTC. Time now 2018-Feb-21 17:50 UTC.
Position N 47°40' E 019°07'.

Length 276 m; draft 0.3 m.

Type: Ship. MMSI: 203999441.

Date/timePositionNaut miles runAvg speedWind from/ knotsBaromVisibWave heightAir tempDewpointWater temp
2018-Feb-20 17:59N 47°40' E 019°07'2 4.4
2018-Feb-20 17:29N 47°38' E 019°06'2 4.4
2018-Feb-20 16:59N 47°36' E 019°05'1 2.4
2018-Feb-20 16:30N 47°35' E 019°04'0 0.0
2018-Feb-20 15:58N 47°35' E 019°04'0 0.1
2018-Feb-20 15:29N 47°34' E 019°04'0 0.4
2018-Feb-20 15:00N 47°34' E 019°04'2 4.7
2018-Feb-20 14:30N 47°32' E 019°03'2 4.7
2018-Feb-20 14:00N 47°30' E 019°03'2 4.3
2018-Feb-20 13:30N 47°28' E 019°04'1 2.7
2018-Feb-20 13:00N 47°26' E 019°03'2 3.4
2018-Feb-20 12:29N 47°25' E 019°03'2 4.4
2018-Feb-20 12:00N 47°23' E 019°00'2 0.6
2018-Feb-20 09:14N 47°23' E 018°58'2 4.7
2018-Feb-20 08:54N 47°21' E 018°57'2 4.8
2018-Feb-20 08:23N 47°19' E 018°56'7 5.0
2018-Feb-20 06:54N 47°25' E 019°03'4 9.5
2018-Feb-20 06:30N 47°28' E 019°04'4 8.5
2018-Feb-20 06:00N 47°33' E 019°03'2 2.8
2018-Feb-20 05:19N 47°34' E 019°04'0 0.0
2018-Feb-20 05:01N 47°34' E 019°04'0 0.0
2018-Feb-20 04:26N 47°34' E 019°04'0 0.0
2018-Feb-20 03:59N 47°34' E 019°04'0 0.0
2018-Feb-20 03:31N 47°34' E 019°04'0 0.0
2018-Feb-20 03:00N 47°34' E 019°04'0 0.0
2018-Feb-20 02:29N 47°34' E 019°04'0 0.0
2018-Feb-20 02:00N 47°34' E 019°04'0 0.0
2018-Feb-20 01:30N 47°34' E 019°04'0 0.0
2018-Feb-20 01:00N 47°34' E 019°04'0 0.1
2018-Feb-20 00:30N 47°35' E 019°04'2 3.2
2018-Feb-20 00:00N 47°33' E 019°04'2 4.2
2018-Feb-19 23:30N 47°31' E 019°03'2 4.3
2018-Feb-19 23:00N 47°29' E 019°04'2 3.7
2018-Feb-19 22:30N 47°27' E 019°03'2 3.7
2018-Feb-19 22:00N 47°25' E 019°03'2 4.1
2018-Feb-19 21:30N 47°23' E 019°01'2 4.9
2018-Feb-19 21:00N 47°23' E 018°58'0 0.2
2018-Feb-19 20:29N 47°23' E 018°58'0 0.0
2018-Feb-19 19:58N 47°23' E 018°58'0 0.3
2018-Feb-19 19:21N 47°23' E 018°58'0 0.3
2018-Feb-19 18:47N 47°23' E 018°58'0 0.7
2018-Feb-19 18:17N 47°23' E 018°58'0 0.1
2018-Feb-19 17:04N 47°23' E 018°58'0 0.0
2018-Feb-19 16:49N 47°23' E 018°58'0 0.0
2018-Feb-19 16:30N 47°23' E 018°58'0 0.1
2018-Feb-19 14:55N 47°23' E 018°58'3 7.2
2018-Feb-19 14:31N 47°24' E 019°02'3 6.4
2018-Feb-19 14:00N 47°27' E 019°03'2 3.0
2018-Feb-19 13:30N 47°25' E 019°03'3 5.4
2018-Feb-19 13:00N 47°23' E 019°00'2 3.0
2018-Feb-19 12:26N 47°23' E 018°58'0 0.0
2018-Feb-19 12:00N 47°23' E 018°58'0 0.2
2018-Feb-19 11:27N 47°22' E 018°58'0 0.2
2018-Feb-19 10:57N 47°23' E 018°58'0 0.0
2018-Feb-19 10:27N 47°23' E 018°58'0 0.4
2018-Feb-19 09:58N 47°23' E 018°58'0 0.4
2018-Feb-19 09:31N 47°23' E 018°58'0 0.0
2018-Feb-19 09:00N 47°23' E 018°58'0 0.0
2018-Feb-19 08:30N 47°23' E 018°58'0 0.0
2018-Feb-19 07:26N 47°23' E 018°58'0 0.0
2018-Feb-19 06:47N 47°23' E 018°58'0 0.0
2018-Feb-19 06:20N 47°23' E 018°58'85 2.0
2018-Feb-17 11:18N 45°58' E 018°45'2 3.6
2018-Feb-17 10:47N 45°56' E 018°46'2 3.7
2018-Feb-17 10:18N 45°55' E 018°48'1 3.8
2018-Feb-17 10:00N 45°54' E 018°49'2 3.2
2018-Feb-17 09:30N 45°52' E 018°50'2 3.2
2018-Feb-17 09:00N 45°51' E 018°51'1 2.6
2018-Feb-17 08:30N 45°50' E 018°51'0 0.0
2018-Feb-17 08:00N 45°50' E 018°51'0 0.0
2018-Feb-17 07:30N 45°50' E 018°51'0 0.0
2018-Feb-17 07:00N 45°50' E 018°51'0 0.0
2018-Feb-17 06:30N 45°50' E 018°51'0 0.0
2018-Feb-17 06:00N 45°50' E 018°51'0 0.0
2018-Feb-17 05:30N 45°50' E 018°51'0 0.0
2018-Feb-17 04:59N 45°50' E 018°51'0 0.0
2018-Feb-17 04:30N 45°50' E 018°51'0 0.0
2018-Feb-17 04:00N 45°50' E 018°51'0 0.1
2018-Feb-17 03:30N 45°50' E 018°51'1 1.3
2018-Feb-17 03:01N 45°49' E 018°51'2 3.1
2018-Feb-17 02:30N 45°48' E 018°51'1 2.8
2018-Feb-17 02:00N 45°47' E 018°53'1 2.8
2018-Feb-17 01:31N 45°46' E 018°53'1 3.0
2018-Feb-17 01:01N 45°44' E 018°54'2 3.1
2018-Feb-17 00:31N 45°43' E 018°54'1 2.8
2018-Feb-17 00:01N 45°42' E 018°55'2 3.1
2018-Feb-16 23:30N 45°41' E 018°57'1 2.6
2018-Feb-16 23:01N 45°39' E 018°58'2 3.5
2018-Feb-16 22:31N 45°38' E 018°56'2 3.1
2018-Feb-16 22:00N 45°37' E 018°54'2 3.2
2018-Feb-16 21:30N 45°36' E 018°55'2 3.6
2018-Feb-16 21:00N 45°34' E 018°53'2 3.4
2018-Feb-16 20:30N 45°33' E 018°55'2 3.3
2018-Feb-16 20:01N 45°32' E 018°57'2 3.2
2018-Feb-16 19:31N 45°32' E 018°59'2 3.1
2018-Feb-16 19:01N 45°33' E 019°01'1 2.5
2018-Feb-16 18:31N 45°32' E 019°02'1 2.9
2018-Feb-16 18:01N 45°32' E 019°04'2 3.0
2018-Feb-16 17:31N 45°31' E 019°06'2 3.1
2018-Feb-16 17:01N 45°30' E 019°06'2 3.1
2018-Feb-16 16:31N 45°29' E 019°04'2 3.3
2018-Feb-16 16:00N 45°29' E 019°01'1 2.5
2018-Feb-16 15:31N 45°29' E 018°60'2 3.2
2018-Feb-16 15:01N 45°28' E 018°59'2 3.1
2018-Feb-16 14:31N 45°26' E 018°60'2 3.2
2018-Feb-16 14:00N 45°25' E 019°02'1 2.8
2018-Feb-16 13:31N 45°24' E 019°01'2 3.4
2018-Feb-16 13:01N 45°24' E 018°59'1 2.9
2018-Feb-16 12:31N 45°22' E 018°59'2 3.2
2018-Feb-16 12:00N 45°21' E 019°01'2 3.2
2018-Feb-16 11:30N 45°21' E 019°03'2 3.4
2018-Feb-16 11:01N 45°20' E 019°05'1 2.9
2018-Feb-16 10:30N 45°19' E 019°06'2 3.1
2018-Feb-16 10:00N 45°18' E 019°07'2 3.2
2018-Feb-16 09:30N 45°17' E 019°09'2 3.2
2018-Feb-16 09:00N 45°16' E 019°11'3 3.2
2018-Feb-16 08:12N 45°15' E 019°14'1 2.8
2018-Feb-16 07:45N 45°15' E 019°15'1 3.6
2018-Feb-16 07:30N 45°14' E 019°17'2 3.5
2018-Feb-16 07:01N 45°14' E 019°19'2 3.4
2018-Feb-16 06:31N 45°14' E 019°22'2 3.3
2018-Feb-16 06:01N 45°14' E 019°24'2 3.2
2018-Feb-16 05:31N 45°14' E 019°26'3 2.5
2018-Feb-16 04:23N 45°15' E 019°30'2 2.6
2018-Feb-16 03:34N 45°15' E 019°33'5 2.3
2018-Feb-16 01:15N 45°13' E 019°40'1 2.8
2018-Feb-16 00:43N 45°14' E 019°42'1 2.8
2018-Feb-16 00:31N 45°14' E 019°43'1 2.8
2018-Feb-16 00:00N 45°14' E 019°45'1 2.4
2018-Feb-15 23:31N 45°13' E 019°47'2 3.0
2018-Feb-15 23:01N 45°13' E 019°49'0 0.8
2018-Feb-15 22:31N 45°13' E 019°49'1 1.6
2018-Feb-15 22:01N 45°14' E 019°50'3 5.1
2018-Feb-15 21:31N 45°16' E 019°52'1 2.3
2018-Feb-15 21:01N 45°15' E 019°54'0 0.0
2018-Feb-15 20:31N 45°15' E 019°54'0 0.0
2018-Feb-15 20:00N 45°15' E 019°54'2 4.7
2018-Feb-15 19:30N 45°14' E 019°51'1 2.5
2018-Feb-15 19:01N 45°13' E 019°49'1 1.9
2018-Feb-15 18:31N 45°14' E 019°51'2 4.4
2018-Feb-15 18:01N 45°16' E 019°52'1 2.9
2018-Feb-15 17:30N 45°15' E 019°54'0 0.3
2018-Feb-15 17:00N 45°15' E 019°54'3 5.5
2018-Feb-15 16:31N 45°14' E 019°51'1 1.5
2018-Feb-15 16:01N 45°13' E 019°50'2 4.1
2018-Feb-15 15:31N 45°15' E 019°52'1 2.8
2018-Feb-15 15:01N 45°16' E 019°53'0 0.7
2018-Feb-15 14:30N 45°15' E 019°54'0 0.1
2018-Feb-15 14:01N 45°15' E 019°54'1 1.6
2018-Feb-15 13:30N 45°15' E 019°55'2 3.2
2018-Feb-15 13:01N 45°13' E 019°56'2 3.2
2018-Feb-15 12:30N 45°12' E 019°57'2 3.3
2018-Feb-15 12:00N 45°11' E 019°59'2 3.3
2018-Feb-15 11:31N 45°11' E 020°01'2 3.3
2018-Feb-15 11:00N 45°10' E 020°03'1 3.0
2018-Feb-15 10:31N 45°10' E 020°05'2 3.1
2018-Feb-15 09:59N 45°10' E 020°07'1 3.0
2018-Feb-15 09:30N 45°11' E 020°09'2 3.2
2018-Feb-15 09:00N 45°11' E 020°12'2 3.0
2018-Feb-15 08:30N 45°10' E 020°13'2 3.3
2018-Feb-15 08:00N 45°09' E 020°15'2 3.5
2018-Feb-15 07:30N 45°08' E 020°17'2 3.3
2018-Feb-15 06:59N 45°06' E 020°18'2 3.0
2018-Feb-15 06:09N 45°04' E 020°20'1 2.8
2018-Feb-15 05:57N 45°04' E 020°21'1 2.9
2018-Feb-15 05:30N 45°03' E 020°21'1 2.9
2018-Feb-15 05:00N 45°01' E 020°22'1 1.8
2018-Feb-15 04:30N 45°01' E 020°22'1 2.0
2018-Feb-15 04:00N 45°00' E 020°20'1 2.5
2018-Feb-15 03:30N 44°60' E 020°19'2 3.0
2018-Feb-15 03:00N 44°59' E 020°17'2 3.0
2018-Feb-15 02:30N 44°57' E 020°18'2 3.1
2018-Feb-15 02:00N 44°56' E 020°19'2 3.3
2018-Feb-15 01:30N 44°55' E 020°20'2 3.4
2018-Feb-15 01:00N 44°53' E 020°21'2 3.3
2018-Feb-15 00:30N 44°52' E 020°23'2 3.4
2018-Feb-15 00:00N 44°51' E 020°25'2 3.6
2018-Feb-14 23:30N 44°50' E 020°27'2 3.1
2018-Feb-14 23:00N 44°50' E 020°29'2 3.2
2018-Feb-14 22:30N 44°50' E 020°32'2 3.4
2018-Feb-14 22:00N 44°51' E 020°34'2 3.3
2018-Feb-14 21:30N 44°51' E 020°36'2 3.2
2018-Feb-14 21:00N 44°51' E 020°38'2 3.0
2018-Feb-14 20:30N 44°49' E 020°39'1 3.0
2018-Feb-14 20:00N 44°48' E 020°38'1 2.6
2018-Feb-14 19:30N 44°47' E 020°38'2 3.1
2018-Feb-14 19:00N 44°45' E 020°38'2 3.1
2018-Feb-14 18:30N 44°44' E 020°40'2 3.5
2018-Feb-14 18:00N 44°43' E 020°41'2 3.2
2018-Feb-14 17:30N 44°42' E 020°43'2 3.3
2018-Feb-14 17:00N 44°40' E 020°45'2 3.3
2018-Feb-14 16:30N 44°40' E 020°47'2 3.1
2018-Feb-14 16:00N 44°39' E 020°49'2 3.2
2018-Feb-14 15:31N 44°40' E 020°51'2 3.2
2018-Feb-14 15:00N 44°40' E 020°53'2 3.3
2018-Feb-14 14:28N 44°40' E 020°56'0 0.5
2018-Feb-14 14:00N 44°41' E 020°56'0 0.0
2018-Feb-14 13:29N 44°41' E 020°56'1 0.1
2018-Feb-14 04:39N 44°42' E 020°57'1 3.4
2018-Feb-14 04:30N 44°42' E 020°58'1 0.4
2018-Feb-14 01:38N 44°43' E 020°59'0 0.1
2018-Feb-14 01:23N 44°43' E 020°59'0 0.2
2018-Feb-14 00:58N 44°43' E 020°59'0 0.1
2018-Feb-14 00:15N 44°43' E 020°59'0 1.4
2018-Feb-14 00:00N 44°43' E 020°59'2 3.3
2018-Feb-13 23:30N 44°43' E 021°01'2 3.4
2018-Feb-13 23:01N 44°43' E 021°04'2 3.5
2018-Feb-13 22:31N 44°44' E 021°06'2 3.5
2018-Feb-13 22:00N 44°44' E 021°08'2 3.4
2018-Feb-13 21:30N 44°45' E 021°10'2 3.2
2018-Feb-13 21:00N 44°46' E 021°12'3 3.5
2018-Feb-13 20:17N 44°47' E 021°15'6 3.1
2018-Feb-13 18:24N 44°48' E 021°23'1 3.1
2018-Feb-13 18:00N 44°47' E 021°24'2 3.6
2018-Feb-13 17:30N 44°46' E 021°27'3 2.3
2018-Feb-13 16:10N 44°46' E 021°31'0 0.1
2018-Feb-13 15:53N 44°46' E 021°31'0 0.0
2018-Feb-13 15:29N 44°46' E 021°31'0 0.4
2018-Feb-13 15:00N 44°46' E 021°31'0 0.4
2018-Feb-13 14:28N 44°46' E 021°31'0 0.4
2018-Feb-13 14:00N 44°46' E 021°31'0 0.5
2018-Feb-13 13:31N 44°46' E 021°31'2 3.8
2018-Feb-13 12:52N 44°46' E 021°35'5 3.8
2018-Feb-13 11:34N 44°42' E 021°39'2 4.3
2018-Feb-13 11:09N 44°40' E 021°40'1 4.2
2018-Feb-13 11:01N 44°40' E 021°41'14 3.7
2018-Feb-13 07:20N 44°38' E 021°60'1 3.8
2018-Feb-13 06:58N 44°36' E 022°01'2 4.2
2018-Feb-13 06:31N 44°35' E 022°02'2 4.4
2018-Feb-13 06:00N 44°33' E 022°03'2 4.4
2018-Feb-13 05:31N 44°31' E 022°04'2 4.8
2018-Feb-13 05:01N 44°29' E 022°07'2 4.7
2018-Feb-13 04:31N 44°28' E 022°10'2 4.7
2018-Feb-13 04:00N 44°30' E 022°12'  
Track history (hours):
 
Tides and Currents Weather Stations Pressure Air Temp Water Temp Dewpoint Dewpoint Depression Visibility Wind Speed Wind Dir Waves Ship Positions

Greifenstein

Last reported at 2018-Feb-20 17:59 UTC. Time now 2018-Feb-21 17:50 UTC.
Position N 47°40' E 019°07'.

Length 276 m; draft 0.3 m.

Type: Ship. MMSI: 203999441.

Date/timePositionNaut miles runAvg speedWind from/ knotsBaromVisibWave heightAir tempDewpointWater temp
2018-Feb-20 17:59N 47°40' E 019°07'2 4.4
2018-Feb-20 17:29N 47°38' E 019°06'2 4.4
2018-Feb-20 16:59N 47°36' E 019°05'1 2.4
2018-Feb-20 16:30N 47°35' E 019°04'0 0.0
2018-Feb-20 15:58N 47°35' E 019°04'0 0.1
2018-Feb-20 15:29N 47°34' E 019°04'0 0.4
2018-Feb-20 15:00N 47°34' E 019°04'2 4.7
2018-Feb-20 14:30N 47°32' E 019°03'2 4.7
2018-Feb-20 14:00N 47°30' E 019°03'2 4.3
2018-Feb-20 13:30N 47°28' E 019°04'1 2.7
2018-Feb-20 13:00N 47°26' E 019°03'2 3.4
2018-Feb-20 12:29N 47°25' E 019°03'2 4.4
2018-Feb-20 12:00N 47°23' E 019°00'2 0.6
2018-Feb-20 09:14N 47°23' E 018°58'2 4.7
2018-Feb-20 08:54N 47°21' E 018°57'2 4.8
2018-Feb-20 08:23N 47°19' E 018°56'7 5.0
2018-Feb-20 06:54N 47°25' E 019°03'4 9.5
2018-Feb-20 06:30N 47°28' E 019°04'4 8.5
2018-Feb-20 06:00N 47°33' E 019°03'2 2.8
2018-Feb-20 05:19N 47°34' E 019°04'0 0.0
2018-Feb-20 05:01N 47°34' E 019°04'0 0.0
2018-Feb-20 04:26N 47°34' E 019°04'0 0.0
2018-Feb-20 03:59N 47°34' E 019°04'0 0.0
2018-Feb-20 03:31N 47°34' E 019°04'0 0.0
2018-Feb-20 03:00N 47°34' E 019°04'0 0.0
2018-Feb-20 02:29N 47°34' E 019°04'0 0.0
2018-Feb-20 02:00N 47°34' E 019°04'0 0.0
2018-Feb-20 01:30N 47°34' E 019°04'0 0.0
2018-Feb-20 01:00N 47°34' E 019°04'0 0.1
2018-Feb-20 00:30N 47°35' E 019°04'2 3.2
2018-Feb-20 00:00N 47°33' E 019°04'2 4.2
2018-Feb-19 23:30N 47°31' E 019°03'2 4.3
2018-Feb-19 23:00N 47°29' E 019°04'2 3.7
2018-Feb-19 22:30N 47°27' E 019°03'2 3.7
2018-Feb-19 22:00N 47°25' E 019°03'2 4.1
2018-Feb-19 21:30N 47°23' E 019°01'2 4.9
2018-Feb-19 21:00N 47°23' E 018°58'0 0.2
2018-Feb-19 20:29N 47°23' E 018°58'0 0.0
2018-Feb-19 19:58N 47°23' E 018°58'0 0.3
2018-Feb-19 19:21N 47°23' E 018°58'0 0.3
2018-Feb-19 18:47N 47°23' E 018°58'0 0.7
2018-Feb-19 18:17N 47°23' E 018°58'0 0.1
2018-Feb-19 17:04N 47°23' E 018°58'0 0.0
2018-Feb-19 16:49N 47°23' E 018°58'0 0.0
2018-Feb-19 16:30N 47°23' E 018°58'0 0.1
2018-Feb-19 14:55N 47°23' E 018°58'3 7.2
2018-Feb-19 14:31N 47°24' E 019°02'3 6.4
2018-Feb-19 14:00N 47°27' E 019°03'2 3.0
2018-Feb-19 13:30N 47°25' E 019°03'3 5.4
2018-Feb-19 13:00N 47°23' E 019°00'2 3.0
2018-Feb-19 12:26N 47°23' E 018°58'0 0.0
2018-Feb-19 12:00N 47°23' E 018°58'0 0.2
2018-Feb-19 11:27N 47°22' E 018°58'0 0.2
2018-Feb-19 10:57N 47°23' E 018°58'0 0.0
2018-Feb-19 10:27N 47°23' E 018°58'0 0.4
2018-Feb-19 09:58N 47°23' E 018°58'0 0.4
2018-Feb-19 09:31N 47°23' E 018°58'0 0.0
2018-Feb-19 09:00N 47°23' E 018°58'0 0.0
2018-Feb-19 08:30N 47°23' E 018°58'0 0.0
2018-Feb-19 07:26N 47°23' E 018°58'0 0.0
2018-Feb-19 06:47N 47°23' E 018°58'0 0.0
2018-Feb-19 06:20N 47°23' E 018°58'85 2.0
2018-Feb-17 11:18N 45°58' E 018°45'2 3.6
2018-Feb-17 10:47N 45°56' E 018°46'2 3.7
2018-Feb-17 10:18N 45°55' E 018°48'1 3.8
2018-Feb-17 10:00N 45°54' E 018°49'2 3.2
2018-Feb-17 09:30N 45°52' E 018°50'2 3.2
2018-Feb-17 09:00N 45°51' E 018°51'1 2.6
2018-Feb-17 08:30N 45°50' E 018°51'0 0.0
2018-Feb-17 08:00N 45°50' E 018°51'0 0.0
2018-Feb-17 07:30N 45°50' E 018°51'0 0.0
2018-Feb-17 07:00N 45°50' E 018°51'0 0.0
2018-Feb-17 06:30N 45°50' E 018°51'0 0.0
2018-Feb-17 06:00N 45°50' E 018°51'0 0.0
2018-Feb-17 05:30N 45°50' E 018°51'0 0.0
2018-Feb-17 04:59N 45°50' E 018°51'0 0.0
2018-Feb-17 04:30N 45°50' E 018°51'0 0.0
2018-Feb-17 04:00N 45°50' E 018°51'0 0.1
2018-Feb-17 03:30N 45°50' E 018°51'1 1.3
2018-Feb-17 03:01N 45°49' E 018°51'2 3.1
2018-Feb-17 02:30N 45°48' E 018°51'1 2.8
2018-Feb-17 02:00N 45°47' E 018°53'1 2.8
2018-Feb-17 01:31N 45°46' E 018°53'1 3.0
2018-Feb-17 01:01N 45°44' E 018°54'2 3.1
2018-Feb-17 00:31N 45°43' E 018°54'1 2.8
2018-Feb-17 00:01N 45°42' E 018°55'2 3.1
2018-Feb-16 23:30N 45°41' E 018°57'1 2.6
2018-Feb-16 23:01N 45°39' E 018°58'2 3.5
2018-Feb-16 22:31N 45°38' E 018°56'2 3.1
2018-Feb-16 22:00N 45°37' E 018°54'2 3.2
2018-Feb-16 21:30N 45°36' E 018°55'2 3.6
2018-Feb-16 21:00N 45°34' E 018°53'2 3.4
2018-Feb-16 20:30N 45°33' E 018°55'2 3.3
2018-Feb-16 20:01N 45°32' E 018°57'2 3.2
2018-Feb-16 19:31N 45°32' E 018°59'2 3.1
2018-Feb-16 19:01N 45°33' E 019°01'1 2.5
2018-Feb-16 18:31N 45°32' E 019°02'1 2.9
2018-Feb-16 18:01N 45°32' E 019°04'2 3.0
2018-Feb-16 17:31N 45°31' E 019°06'2 3.1
2018-Feb-16 17:01N 45°30' E 019°06'2 3.1
2018-Feb-16 16:31N 45°29' E 019°04'2 3.3
2018-Feb-16 16:00N 45°29' E 019°01'1 2.5
2018-Feb-16 15:31N 45°29' E 018°60'2 3.2
2018-Feb-16 15:01N 45°28' E 018°59'2 3.1
2018-Feb-16 14:31N 45°26' E 018°60'2 3.2
2018-Feb-16 14:00N 45°25' E 019°02'1 2.8
2018-Feb-16 13:31N 45°24' E 019°01'2 3.4
2018-Feb-16 13:01N 45°24' E 018°59'1 2.9
2018-Feb-16 12:31N 45°22' E 018°59'2 3.2
2018-Feb-16 12:00N 45°21' E 019°01'2 3.2
2018-Feb-16 11:30N 45°21' E 019°03'2 3.4
2018-Feb-16 11:01N 45°20' E 019°05'1 2.9
2018-Feb-16 10:30N 45°19' E 019°06'2 3.1
2018-Feb-16 10:00N 45°18' E 019°07'2 3.2
2018-Feb-16 09:30N 45°17' E 019°09'2 3.2
2018-Feb-16 09:00N 45°16' E 019°11'3 3.2
2018-Feb-16 08:12N 45°15' E 019°14'1 2.8
2018-Feb-16 07:45N 45°15' E 019°15'1 3.6
2018-Feb-16 07:30N 45°14' E 019°17'2 3.5
2018-Feb-16 07:01N 45°14' E 019°19'2 3.4
2018-Feb-16 06:31N 45°14' E 019°22'2 3.3
2018-Feb-16 06:01N 45°14' E 019°24'2 3.2
2018-Feb-16 05:31N 45°14' E 019°26'3 2.5
2018-Feb-16 04:23N 45°15' E 019°30'2 2.6
2018-Feb-16 03:34N 45°15' E 019°33'5 2.3
2018-Feb-16 01:15N 45°13' E 019°40'1 2.8
2018-Feb-16 00:43N 45°14' E 019°42'1 2.8
2018-Feb-16 00:31N 45°14' E 019°43'1 2.8
2018-Feb-16 00:00N 45°14' E 019°45'1 2.4
2018-Feb-15 23:31N 45°13' E 019°47'2 3.0
2018-Feb-15 23:01N 45°13' E 019°49'0 0.8
2018-Feb-15 22:31N 45°13' E 019°49'1 1.6
2018-Feb-15 22:01N 45°14' E 019°50'3 5.1
2018-Feb-15 21:31N 45°16' E 019°52'1 2.3
2018-Feb-15 21:01N 45°15' E 019°54'0 0.0
2018-Feb-15 20:31N 45°15' E 019°54'0 0.0
2018-Feb-15 20:00N 45°15' E 019°54'2 4.7
2018-Feb-15 19:30N 45°14' E 019°51'1 2.5
2018-Feb-15 19:01N 45°13' E 019°49'1 1.9
2018-Feb-15 18:31N 45°14' E 019°51'2 4.4
2018-Feb-15 18:01N 45°16' E 019°52'1 2.9
2018-Feb-15 17:30N 45°15' E 019°54'0 0.3
2018-Feb-15 17:00N 45°15' E 019°54'3 5.5
2018-Feb-15 16:31N 45°14' E 019°51'1 1.5
2018-Feb-15 16:01N 45°13' E 019°50'2 4.1
2018-Feb-15 15:31N 45°15' E 019°52'1 2.8
2018-Feb-15 15:01N 45°16' E 019°53'0 0.7
2018-Feb-15 14:30N 45°15' E 019°54'0 0.1
2018-Feb-15 14:01N 45°15' E 019°54'1 1.6
2018-Feb-15 13:30N 45°15' E 019°55'2 3.2
2018-Feb-15 13:01N 45°13' E 019°56'2 3.2
2018-Feb-15 12:30N 45°12' E 019°57'2 3.3
2018-Feb-15 12:00N 45°11' E 019°59'2 3.3
2018-Feb-15 11:31N 45°11' E 020°01'2 3.3
2018-Feb-15 11:00N 45°10' E 020°03'1 3.0
2018-Feb-15 10:31N 45°10' E 020°05'2 3.1
2018-Feb-15 09:59N 45°10' E 020°07'1 3.0
2018-Feb-15 09:30N 45°11' E 020°09'2 3.2
2018-Feb-15 09:00N 45°11' E 020°12'2 3.0
2018-Feb-15 08:30N 45°10' E 020°13'2 3.3
2018-Feb-15 08:00N 45°09' E 020°15'2 3.5
2018-Feb-15 07:30N 45°08' E 020°17'2 3.3
2018-Feb-15 06:59N 45°06' E 020°18'2 3.0
2018-Feb-15 06:09N 45°04' E 020°20'1 2.8
2018-Feb-15 05:57N 45°04' E 020°21'1 2.9
2018-Feb-15 05:30N 45°03' E 020°21'1 2.9
2018-Feb-15 05:00N 45°01' E 020°22'1 1.8
2018-Feb-15 04:30N 45°01' E 020°22'1 2.0
2018-Feb-15 04:00N 45°00' E 020°20'1 2.5
2018-Feb-15 03:30N 44°60' E 020°19'2 3.0
2018-Feb-15 03:00N 44°59' E 020°17'2 3.0
2018-Feb-15 02:30N 44°57' E 020°18'2 3.1
2018-Feb-15 02:00N 44°56' E 020°19'2 3.3
2018-Feb-15 01:30N 44°55' E 020°20'2 3.4
2018-Feb-15 01:00N 44°53' E 020°21'2 3.3
2018-Feb-15 00:30N 44°52' E 020°23'2 3.4
2018-Feb-15 00:00N 44°51' E 020°25'2 3.6
2018-Feb-14 23:30N 44°50' E 020°27'2 3.1
2018-Feb-14 23:00N 44°50' E 020°29'2 3.2
2018-Feb-14 22:30N 44°50' E 020°32'2 3.4
2018-Feb-14 22:00N 44°51' E 020°34'2 3.3
2018-Feb-14 21:30N 44°51' E 020°36'2 3.2
2018-Feb-14 21:00N 44°51' E 020°38'2 3.0
2018-Feb-14 20:30N 44°49' E 020°39'1 3.0
2018-Feb-14 20:00N 44°48' E 020°38'1 2.6
2018-Feb-14 19:30N 44°47' E 020°38'2 3.1
2018-Feb-14 19:00N 44°45' E 020°38'2 3.1
2018-Feb-14 18:30N 44°44' E 020°40'2 3.5
2018-Feb-14 18:00N 44°43' E 020°41'2 3.2
2018-Feb-14 17:30N 44°42' E 020°43'2 3.3
2018-Feb-14 17:00N 44°40' E 020°45'2 3.3
2018-Feb-14 16:30N 44°40' E 020°47'2 3.1
2018-Feb-14 16:00N 44°39' E 020°49'2 3.2
2018-Feb-14 15:31N 44°40' E 020°51'2 3.2
2018-Feb-14 15:00N 44°40' E 020°53'2 3.3
2018-Feb-14 14:28N 44°40' E 020°56'0 0.5
2018-Feb-14 14:00N 44°41' E 020°56'0 0.0
2018-Feb-14 13:29N 44°41' E 020°56'1 0.1
2018-Feb-14 04:39N 44°42' E 020°57'1 3.4
2018-Feb-14 04:30N 44°42' E 020°58'1 0.4
2018-Feb-14 01:38N 44°43' E 020°59'0 0.1
2018-Feb-14 01:23N 44°43' E 020°59'0 0.2
2018-Feb-14 00:58N 44°43' E 020°59'0 0.1
2018-Feb-14 00:15N 44°43' E 020°59'0 1.4
2018-Feb-14 00:00N 44°43' E 020°59'2 3.3
2018-Feb-13 23:30N 44°43' E 021°01'2 3.4
2018-Feb-13 23:01N 44°43' E 021°04'2 3.5
2018-Feb-13 22:31N 44°44' E 021°06'2 3.5
2018-Feb-13 22:00N 44°44' E 021°08'2 3.4
2018-Feb-13 21:30N 44°45' E 021°10'2 3.2
2018-Feb-13 21:00N 44°46' E 021°12'3 3.5
2018-Feb-13 20:17N 44°47' E 021°15'6 3.1
2018-Feb-13 18:24N 44°48' E 021°23'1 3.1
2018-Feb-13 18:00N 44°47' E 021°24'2 3.6
2018-Feb-13 17:30N 44°46' E 021°27'3 2.3
2018-Feb-13 16:10N 44°46' E 021°31'0 0.1
2018-Feb-13 15:53N 44°46' E 021°31'0 0.0
2018-Feb-13 15:29N 44°46' E 021°31'0 0.4
2018-Feb-13 15:00N 44°46' E 021°31'0 0.4
2018-Feb-13 14:28N 44°46' E 021°31'0 0.4
2018-Feb-13 14:00N 44°46' E 021°31'0 0.5
2018-Feb-13 13:31N 44°46' E 021°31'2 3.8
2018-Feb-13 12:52N 44°46' E 021°35'5 3.8
2018-Feb-13 11:34N 44°42' E 021°39'2 4.3
2018-Feb-13 11:09N 44°40' E 021°40'1 4.2
2018-Feb-13 11:01N 44°40' E 021°41'14 3.7
2018-Feb-13 07:20N 44°38' E 021°60'1 3.8
2018-Feb-13 06:58N 44°36' E 022°01'2 4.2
2018-Feb-13 06:31N 44°35' E 022°02'2 4.4
2018-Feb-13 06:00N 44°33' E 022°03'2 4.4
2018-Feb-13 05:31N 44°31' E 022°04'2 4.8
2018-Feb-13 05:01N 44°29' E 022°07'2 4.7
2018-Feb-13 04:31N 44°28' E 022°10'2 4.7
2018-Feb-13 04:00N 44°30' E 022°12'  

Dump ship's entire track history